sensor_id;sensor_type;location;lat;lon;timestamp;P1;durP1;ratioP1;P2;durP2;ratioP2
36433;SDS011;31691;51.972;5.672;2022-07-05T00:04:54;13.23;;;12.27;;
36433;SDS011;31691;51.972;5.672;2022-07-05T00:09:57;14.70;;;13.30;;
36433;SDS011;31691;51.972;5.672;2022-07-05T00:15:00;13.48;;;12.57;;
36433;SDS011;31691;51.972;5.672;2022-07-05T00:20:03;14.95;;;13.73;;
36433;SDS011;31691;51.972;5.672;2022-07-05T00:25:05;14.95;;;13.75;;
36433;SDS011;31691;51.972;5.672;2022-07-05T00:30:08;14.23;;;13.07;;
36433;SDS011;31691;51.972;5.672;2022-07-05T00:35:11;15.05;;;13.68;;
36433;SDS011;31691;51.972;5.672;2022-07-05T00:40:14;14.73;;;13.52;;
36433;SDS011;31691;51.972;5.672;2022-07-05T00:45:16;14.52;;;13.20;;
36433;SDS011;31691;51.972;5.672;2022-07-05T00:50:18;14.65;;;13.40;;
36433;SDS011;31691;51.972;5.672;2022-07-05T00:55:21;14.57;;;13.48;;
36433;SDS011;31691;51.972;5.672;2022-07-05T01:00:23;14.35;;;13.25;;
36433;SDS011;31691;51.972;5.672;2022-07-05T01:05:26;13.13;;;12.07;;
36433;SDS011;31691;51.972;5.672;2022-07-05T01:10:29;14.52;;;13.13;;
36433;SDS011;31691;51.972;5.672;2022-07-05T01:15:32;13.90;;;12.63;;
36433;SDS011;31691;51.972;5.672;2022-07-05T01:20:35;14.02;;;12.95;;
36433;SDS011;31691;51.972;5.672;2022-07-05T01:25:38;14.48;;;13.27;;
36433;SDS011;31691;51.972;5.672;2022-07-05T01:30:41;15.15;;;13.85;;
36433;SDS011;31691;51.972;5.672;2022-07-05T01:35:44;14.55;;;13.45;;
36433;SDS011;31691;51.972;5.672;2022-07-05T01:40:46;14.40;;;13.20;;
36433;SDS011;31691;51.972;5.672;2022-07-05T01:45:53;13.73;;;12.73;;
36433;SDS011;31691;51.972;5.672;2022-07-05T01:51:04;15.15;;;13.95;;
36433;SDS011;31691;51.972;5.672;2022-07-05T01:56:09;15.45;;;14.25;;
36433;SDS011;31691;51.972;5.672;2022-07-05T02:01:12;13.77;;;12.52;;
36433;SDS011;31691;51.972;5.672;2022-07-05T02:06:14;15.35;;;13.90;;
36433;SDS011;31691;51.972;5.672;2022-07-05T02:11:16;15.43;;;14.13;;
36433;SDS011;31691;51.972;5.672;2022-07-05T02:16:21;14.70;;;13.55;;
36433;SDS011;31691;51.972;5.672;2022-07-05T02:21:25;15.05;;;13.85;;
36433;SDS011;31691;51.972;5.672;2022-07-05T02:26:27;15.27;;;14.07;;
36433;SDS011;31691;51.972;5.672;2022-07-05T02:31:30;14.95;;;13.75;;
36433;SDS011;31691;51.972;5.672;2022-07-05T02:36:32;14.05;;;13.05;;
36433;SDS011;31691;51.972;5.672;2022-07-05T02:41:35;14.85;;;13.63;;
36433;SDS011;31691;51.972;5.672;2022-07-05T02:51:40;14.57;;;13.38;;
36433;SDS011;31691;51.972;5.672;2022-07-05T03:01:46;13.80;;;12.60;;
36433;SDS011;31691;51.972;5.672;2022-07-05T03:06:49;15.00;;;13.60;;
36433;SDS011;31691;51.972;5.672;2022-07-05T03:11:53;14.27;;;13.10;;
36433;SDS011;31691;51.972;5.672;2022-07-05T03:16:55;13.98;;;12.73;;
36433;SDS011;31691;51.972;5.672;2022-07-05T03:21:58;14.45;;;13.30;;
36433;SDS011;31691;51.972;5.672;2022-07-05T03:27:00;14.52;;;13.32;;
36433;SDS011;31691;51.972;5.672;2022-07-05T03:32:02;16.10;;;14.77;;
36433;SDS011;31691;51.972;5.672;2022-07-05T03:37:05;14.60;;;13.52;;
36433;SDS011;31691;51.972;5.672;2022-07-05T03:42:07;15.38;;;14.18;;
36433;SDS011;31691;51.972;5.672;2022-07-05T03:47:09;16.45;;;15.15;;
36433;SDS011;31691;51.972;5.672;2022-07-05T03:52:12;15.88;;;14.68;;
36433;SDS011;31691;51.972;5.672;2022-07-05T03:57:14;14.90;;;13.82;;
36433;SDS011;31691;51.972;5.672;2022-07-05T04:02:16;16.40;;;15.10;;
36433;SDS011;31691;51.972;5.672;2022-07-05T04:07:18;16.55;;;15.15;;
36433;SDS011;31691;51.972;5.672;2022-07-05T04:12:21;15.00;;;13.88;;
36433;SDS011;31691;51.972;5.672;2022-07-05T04:17:23;16.30;;;15.00;;
36433;SDS011;31691;51.972;5.672;2022-07-05T04:22:25;16.73;;;15.32;;
36433;SDS011;31691;51.972;5.672;2022-07-05T04:27:27;18.60;;;15.75;;
36433;SDS011;31691;51.972;5.672;2022-07-05T04:32:30;18.30;;;16.65;;
36433;SDS011;31691;51.972;5.672;2022-07-05T04:37:32;18.05;;;16.75;;
36433;SDS011;31691;51.972;5.672;2022-07-05T04:47:36;20.40;;;18.67;;
36433;SDS011;31691;51.972;5.672;2022-07-05T04:52:39;22.77;;;19.95;;
36433;SDS011;31691;51.972;5.672;2022-07-05T05:02:44;20.30;;;18.40;;
36433;SDS011;31691;51.972;5.672;2022-07-05T05:07:46;20.05;;;18.23;;
36433;SDS011;31691;51.972;5.672;2022-07-05T05:17:50;25.42;;;23.10;;
36433;SDS011;31691;51.972;5.672;2022-07-05T05:22:52;27.08;;;24.35;;
36433;SDS011;31691;51.972;5.672;2022-07-05T05:32:57;25.80;;;23.33;;
36433;SDS011;31691;51.972;5.672;2022-07-05T05:43:01;26.10;;;23.65;;
36433;SDS011;31691;51.972;5.672;2022-07-05T05:53:05;28.17;;;25.48;;
36433;SDS011;31691;51.972;5.672;2022-07-05T05:58:12;29.70;;;24.77;;
36433;SDS011;31691;51.972;5.672;2022-07-05T06:03:16;26.90;;;24.60;;
36433;SDS011;31691;51.972;5.672;2022-07-05T06:08:19;28.50;;;25.80;;
36433;SDS011;31691;51.972;5.672;2022-07-05T06:13:22;27.50;;;25.17;;
36433;SDS011;31691;51.972;5.672;2022-07-05T06:18:24;29.45;;;26.48;;
36433;SDS011;31691;51.972;5.672;2022-07-05T06:23:26;28.77;;;26.33;;
36433;SDS011;31691;51.972;5.672;2022-07-05T06:28:29;27.23;;;24.85;;
36433;SDS011;31691;51.972;5.672;2022-07-05T06:33:32;27.10;;;24.80;;
36433;SDS011;31691;51.972;5.672;2022-07-05T06:38:34;27.08;;;24.67;;
36433;SDS011;31691;51.972;5.672;2022-07-05T06:43:36;26.85;;;24.13;;
36433;SDS011;31691;51.972;5.672;2022-07-05T06:48:39;24.05;;;21.75;;
36433;SDS011;31691;51.972;5.672;2022-07-05T06:53:41;24.33;;;22.17;;
36433;SDS011;31691;51.972;5.672;2022-07-05T06:58:43;24.13;;;21.75;;
36433;SDS011;31691;51.972;5.672;2022-07-05T07:03:46;22.13;;;20.20;;
36433;SDS011;31691;51.972;5.672;2022-07-05T07:09:08;23.80;;;21.38;;
36433;SDS011;31691;51.972;5.672;2022-07-05T07:14:26;23.25;;;21.13;;
36433;SDS011;31691;51.972;5.672;2022-07-05T07:19:28;26.17;;;23.67;;
36433;SDS011;31691;51.972;5.672;2022-07-05T07:24:30;25.55;;;23.02;;
36433;SDS011;31691;51.972;5.672;2022-07-05T07:29:34;26.35;;;24.05;;
36433;SDS011;31691;51.972;5.672;2022-07-05T07:34:37;26.33;;;24.05;;
36433;SDS011;31691;51.972;5.672;2022-07-05T07:39:40;28.40;;;25.58;;
36433;SDS011;31691;51.972;5.672;2022-07-05T07:44:43;22.95;;;20.77;;
36433;SDS011;31691;51.972;5.672;2022-07-05T07:49:45;22.58;;;20.42;;
36433;SDS011;31691;51.972;5.672;2022-07-05T07:54:48;23.33;;;21.30;;
36433;SDS011;31691;51.972;5.672;2022-07-05T07:59:50;23.80;;;21.45;;
36433;SDS011;31691;51.972;5.672;2022-07-05T08:04:53;22.88;;;21.08;;
36433;SDS011;31691;51.972;5.672;2022-07-05T08:09:57;24.25;;;22.05;;
36433;SDS011;31691;51.972;5.672;2022-07-05T08:14:59;22.73;;;20.88;;
36433;SDS011;31691;51.972;5.672;2022-07-05T08:20:02;21.10;;;19.20;;
36433;SDS011;31691;51.972;5.672;2022-07-05T08:25:24;20.10;;;18.30;;
36433;SDS011;31691;51.972;5.672;2022-07-05T08:30:26;23.05;;;21.02;;
36433;SDS011;31691;51.972;5.672;2022-07-05T08:35:28;22.15;;;20.25;;
36433;SDS011;31691;51.972;5.672;2022-07-05T08:40:31;20.27;;;18.23;;
36433;SDS011;31691;51.972;5.672;2022-07-05T08:45:38;21.02;;;19.20;;
36433;SDS011;31691;51.972;5.672;2022-07-05T08:50:43;23.02;;;21.13;;
36433;SDS011;31691;51.972;5.672;2022-07-05T08:55:47;22.45;;;20.00;;
36433;SDS011;31691;51.972;5.672;2022-07-05T09:00:49;22.13;;;20.30;;
36433;SDS011;31691;51.972;5.672;2022-07-05T09:05:52;24.25;;;22.00;;
36433;SDS011;31691;51.972;5.672;2022-07-05T09:10:57;24.80;;;22.60;;
36433;SDS011;31691;51.972;5.672;2022-07-05T09:16:01;20.65;;;18.88;;
36433;SDS011;31691;51.972;5.672;2022-07-05T09:21:11;19.70;;;17.90;;
36433;SDS011;31691;51.972;5.672;2022-07-05T09:26:27;21.15;;;19.25;;
36433;SDS011;31691;51.972;5.672;2022-07-05T09:31:44;23.98;;;21.67;;
36433;SDS011;31691;51.972;5.672;2022-07-05T09:36:55;26.35;;;23.58;;
36433;SDS011;31691;51.972;5.672;2022-07-05T09:42:16;26.67;;;24.27;;
36433;SDS011;31691;51.972;5.672;2022-07-05T09:47:29;24.67;;;22.17;;
36433;SDS011;31691;51.972;5.672;2022-07-05T09:52:33;22.58;;;20.67;;
36433;SDS011;31691;51.972;5.672;2022-07-05T09:57:38;23.17;;;21.02;;
36433;SDS011;31691;51.972;5.672;2022-07-05T10:07:53;22.90;;;20.60;;
36433;SDS011;31691;51.972;5.672;2022-07-05T10:12:59;23.13;;;20.92;;
36433;SDS011;31691;51.972;5.672;2022-07-05T10:18:04;18.13;;;16.55;;
36433;SDS011;31691;51.972;5.672;2022-07-05T10:23:11;17.98;;;16.52;;
36433;SDS011;31691;51.972;5.672;2022-07-05T10:28:15;17.52;;;16.23;;
36433;SDS011;31691;51.972;5.672;2022-07-05T10:33:19;17.40;;;15.80;;
36433;SDS011;31691;51.972;5.672;2022-07-05T10:38:26;15.70;;;14.25;;
36433;SDS011;31691;51.972;5.672;2022-07-05T10:43:29;16.30;;;15.20;;
36433;SDS011;31691;51.972;5.672;2022-07-05T10:48:32;16.27;;;14.90;;
36433;SDS011;31691;51.972;5.672;2022-07-05T10:58:46;14.70;;;13.45;;
36433;SDS011;31691;51.972;5.672;2022-07-05T11:09:17;13.25;;;12.25;;
36433;SDS011;31691;51.972;5.672;2022-07-05T11:19:32;14.98;;;13.63;;
36433;SDS011;31691;51.972;5.672;2022-07-05T11:24:36;13.68;;;12.43;;
36433;SDS011;31691;51.972;5.672;2022-07-05T11:29:39;14.48;;;13.27;;
36433;SDS011;31691;51.972;5.672;2022-07-05T11:34:51;13.68;;;12.65;;
36433;SDS011;31691;51.972;5.672;2022-07-05T11:45:21;14.02;;;12.80;;
36433;SDS011;31691;51.972;5.672;2022-07-05T11:50:25;19.65;;;11.70;;
36433;SDS011;31691;51.972;5.672;2022-07-05T11:55:30;12.82;;;11.60;;
36433;SDS011;31691;51.972;5.672;2022-07-05T12:00:33;13.45;;;12.25;;
36433;SDS011;31691;51.972;5.672;2022-07-05T12:05:37;12.63;;;11.63;;
36433;SDS011;31691;51.972;5.672;2022-07-05T12:10:46;12.77;;;11.77;;
36433;SDS011;31691;51.972;5.672;2022-07-05T12:16:16;13.27;;;12.18;;
36433;SDS011;31691;51.972;5.672;2022-07-05T12:21:19;13.18;;;12.07;;
36433;SDS011;31691;51.972;5.672;2022-07-05T12:26:22;12.65;;;11.60;;
36433;SDS011;31691;51.972;5.672;2022-07-05T12:31:25;14.13;;;12.55;;
36433;SDS011;31691;51.972;5.672;2022-07-05T12:36:27;12.43;;;11.18;;
36433;SDS011;31691;51.972;5.672;2022-07-05T12:41:30;12.63;;;11.73;;
36433;SDS011;31691;51.972;5.672;2022-07-05T12:46:35;15.27;;;14.10;;
36433;SDS011;31691;51.972;5.672;2022-07-05T12:51:45;14.65;;;13.38;;
36433;SDS011;31691;51.972;5.672;2022-07-05T12:56:48;15.55;;;14.15;;
36433;SDS011;31691;51.972;5.672;2022-07-05T13:02:55;13.13;;;11.95;;
36433;SDS011;31691;51.972;5.672;2022-07-05T13:07:47;13.48;;;12.38;;
36433;SDS011;31691;51.972;5.672;2022-07-05T13:12:54;13.48;;;12.27;;
36433;SDS011;31691;51.972;5.672;2022-07-05T13:17:56;12.48;;;11.48;;
36433;SDS011;31691;51.972;5.672;2022-07-05T13:22:59;14.00;;;12.80;;
36433;SDS011;31691;51.972;5.672;2022-07-05T13:28:01;13.63;;;12.50;;
36433;SDS011;31691;51.972;5.672;2022-07-05T13:33:03;13.38;;;12.43;;
36433;SDS011;31691;51.972;5.672;2022-07-05T13:38:06;14.02;;;12.82;;
36433;SDS011;31691;51.972;5.672;2022-07-05T13:43:08;14.43;;;13.40;;
36433;SDS011;31691;51.972;5.672;2022-07-05T13:48:10;12.80;;;11.60;;
36433;SDS011;31691;51.972;5.672;2022-07-05T13:53:12;11.80;;;11.10;;
36433;SDS011;31691;51.972;5.672;2022-07-05T13:58:14;13.40;;;12.40;;
36433;SDS011;31691;51.972;5.672;2022-07-05T14:03:19;14.82;;;13.73;;
36433;SDS011;31691;51.972;5.672;2022-07-05T14:08:22;12.93;;;11.80;;
36433;SDS011;31691;51.972;5.672;2022-07-05T14:13:25;13.15;;;12.25;;
36433;SDS011;31691;51.972;5.672;2022-07-05T14:18:27;12.80;;;12.00;;
36433;SDS011;31691;51.972;5.672;2022-07-05T14:23:30;19.02;;;13.02;;
36433;SDS011;31691;51.972;5.672;2022-07-05T14:28:32;12.63;;;11.57;;
36433;SDS011;31691;51.972;5.672;2022-07-05T14:33:34;14.07;;;13.07;;
36433;SDS011;31691;51.972;5.672;2022-07-05T14:38:38;12.63;;;11.68;;
36433;SDS011;31691;51.972;5.672;2022-07-05T14:43:40;12.60;;;11.70;;
36433;SDS011;31691;51.972;5.672;2022-07-05T14:48:43;12.50;;;11.50;;
36433;SDS011;31691;51.972;5.672;2022-07-05T14:53:45;12.65;;;11.85;;
36433;SDS011;31691;51.972;5.672;2022-07-05T14:58:49;13.05;;;12.25;;
36433;SDS011;31691;51.972;5.672;2022-07-05T15:03:51;13.20;;;12.20;;
36433;SDS011;31691;51.972;5.672;2022-07-05T15:08:54;13.38;;;12.38;;
36433;SDS011;31691;51.972;5.672;2022-07-05T15:14:00;13.73;;;12.68;;
36433;SDS011;31691;51.972;5.672;2022-07-05T15:19:04;14.30;;;13.30;;
36433;SDS011;31691;51.972;5.672;2022-07-05T15:24:06;14.02;;;13.10;;
36433;SDS011;31691;51.972;5.672;2022-07-05T15:29:18;15.00;;;13.88;;
36433;SDS011;31691;51.972;5.672;2022-07-05T15:34:21;15.38;;;14.05;;
36433;SDS011;31691;51.972;5.672;2022-07-05T15:39:23;13.23;;;12.32;;
36433;SDS011;31691;51.972;5.672;2022-07-05T15:44:25;13.40;;;12.50;;
36433;SDS011;31691;51.972;5.672;2022-07-05T15:49:28;15.20;;;14.20;;
36433;SDS011;31691;51.972;5.672;2022-07-05T15:54:32;16.70;;;15.30;;
36433;SDS011;31691;51.972;5.672;2022-07-05T15:59:35;15.60;;;14.50;;
36433;SDS011;31691;51.972;5.672;2022-07-05T16:04:37;15.63;;;14.50;;
36433;SDS011;31691;51.972;5.672;2022-07-05T16:09:39;13.85;;;12.75;;
36433;SDS011;31691;51.972;5.672;2022-07-05T16:14:42;13.80;;;12.77;;
36433;SDS011;31691;51.972;5.672;2022-07-05T16:19:44;14.93;;;13.70;;
36433;SDS011;31691;51.972;5.672;2022-07-05T16:24:46;15.32;;;14.23;;
36433;SDS011;31691;51.972;5.672;2022-07-05T16:29:48;16.13;;;14.93;;
36433;SDS011;31691;51.972;5.672;2022-07-05T16:34:51;14.88;;;13.77;;
36433;SDS011;31691;51.972;5.672;2022-07-05T16:39:53;15.20;;;14.05;;
36433;SDS011;31691;51.972;5.672;2022-07-05T16:44:55;16.60;;;15.32;;
36433;SDS011;31691;51.972;5.672;2022-07-05T16:50:00;16.08;;;14.68;;
36433;SDS011;31691;51.972;5.672;2022-07-05T16:55:05;17.98;;;16.38;;
36433;SDS011;31691;51.972;5.672;2022-07-05T17:00:08;16.98;;;15.38;;
36433;SDS011;31691;51.972;5.672;2022-07-05T17:05:11;16.98;;;15.38;;
36433;SDS011;31691;51.972;5.672;2022-07-05T17:10:13;16.23;;;15.00;;
36433;SDS011;31691;51.972;5.672;2022-07-05T17:15:16;16.75;;;15.35;;
36433;SDS011;31691;51.972;5.672;2022-07-05T17:20:19;15.57;;;14.07;;
36433;SDS011;31691;51.972;5.672;2022-07-05T17:25:22;15.70;;;14.55;;
36433;SDS011;31691;51.972;5.672;2022-07-05T17:30:24;16.60;;;15.35;;
36433;SDS011;31691;51.972;5.672;2022-07-05T17:35:27;17.08;;;15.60;;
36433;SDS011;31691;51.972;5.672;2022-07-05T17:40:29;16.42;;;14.85;;
36433;SDS011;31691;51.972;5.672;2022-07-05T17:45:31;15.50;;;14.20;;
36433;SDS011;31691;51.972;5.672;2022-07-05T17:50:33;16.02;;;14.65;;
36433;SDS011;31691;51.972;5.672;2022-07-05T17:55:46;14.55;;;13.35;;
36433;SDS011;31691;51.972;5.672;2022-07-05T18:00:48;16.48;;;13.38;;
36433;SDS011;31691;51.972;5.672;2022-07-05T18:05:51;15.23;;;14.00;;
36433;SDS011;31691;51.972;5.672;2022-07-05T18:10:54;14.75;;;13.57;;
36433;SDS011;31691;51.972;5.672;2022-07-05T18:20:59;15.48;;;14.15;;
36433;SDS011;31691;51.972;5.672;2022-07-05T18:26:01;18.17;;;14.35;;
36433;SDS011;31691;51.972;5.672;2022-07-05T18:36:06;15.65;;;14.38;;
36433;SDS011;31691;51.972;5.672;2022-07-05T18:41:09;16.52;;;15.00;;
36433;SDS011;31691;51.972;5.672;2022-07-05T18:46:11;15.70;;;14.50;;
36433;SDS011;31691;51.972;5.672;2022-07-05T18:56:15;14.20;;;13.10;;
36433;SDS011;31691;51.972;5.672;2022-07-05T19:01:23;15.02;;;14.00;;
36433;SDS011;31691;51.972;5.672;2022-07-05T19:06:27;14.52;;;13.48;;
36433;SDS011;31691;51.972;5.672;2022-07-05T19:17:13;14.70;;;13.63;;
36433;SDS011;31691;51.972;5.672;2022-07-05T19:22:15;15.75;;;14.50;;
36433;SDS011;31691;51.972;5.672;2022-07-05T19:32:20;16.27;;;14.82;;
36433;SDS011;31691;51.972;5.672;2022-07-05T19:37:23;16.00;;;14.75;;
36433;SDS011;31691;51.972;5.672;2022-07-05T19:47:27;15.63;;;14.43;;
36433;SDS011;31691;51.972;5.672;2022-07-05T19:52:30;16.67;;;15.38;;
36433;SDS011;31691;51.972;5.672;2022-07-05T19:57:33;17.00;;;14.80;;
36433;SDS011;31691;51.972;5.672;2022-07-05T20:07:37;15.73;;;14.55;;
36433;SDS011;31691;51.972;5.672;2022-07-05T20:12:39;15.38;;;14.18;;
36433;SDS011;31691;51.972;5.672;2022-07-05T20:17:42;16.60;;;15.27;;
36433;SDS011;31691;51.972;5.672;2022-07-05T20:22:44;16.10;;;14.80;;
36433;SDS011;31691;51.972;5.672;2022-07-05T20:27:47;15.43;;;14.18;;
36433;SDS011;31691;51.972;5.672;2022-07-05T20:32:49;15.18;;;13.82;;
36433;SDS011;31691;51.972;5.672;2022-07-05T20:37:52;13.90;;;13.00;;
36433;SDS011;31691;51.972;5.672;2022-07-05T20:42:54;14.88;;;13.48;;
36433;SDS011;31691;51.972;5.672;2022-07-05T20:47:56;14.25;;;13.05;;
36433;SDS011;31691;51.972;5.672;2022-07-05T20:52:58;14.50;;;13.27;;
36433;SDS011;31691;51.972;5.672;2022-07-05T21:03:03;15.07;;;13.88;;
36433;SDS011;31691;51.972;5.672;2022-07-05T21:08:06;14.18;;;13.15;;
36433;SDS011;31691;51.972;5.672;2022-07-05T21:13:09;14.80;;;13.60;;
36433;SDS011;31691;51.972;5.672;2022-07-05T21:18:11;15.00;;;13.70;;
36433;SDS011;31691;51.972;5.672;2022-07-05T21:28:16;14.40;;;13.38;;
36433;SDS011;31691;51.972;5.672;2022-07-05T21:33:18;13.82;;;12.82;;
36433;SDS011;31691;51.972;5.672;2022-07-05T21:38:27;14.48;;;13.38;;
36433;SDS011;31691;51.972;5.672;2022-07-05T21:43:30;14.90;;;13.48;;
36433;SDS011;31691;51.972;5.672;2022-07-05T21:48:32;13.95;;;12.88;;
36433;SDS011;31691;51.972;5.672;2022-07-05T21:58:37;12.93;;;12.00;;
36433;SDS011;31691;51.972;5.672;2022-07-05T22:03:59;13.75;;;12.60;;
36433;SDS011;31691;51.972;5.672;2022-07-05T22:09:21;12.82;;;11.75;;
36433;SDS011;31691;51.972;5.672;2022-07-05T22:19:26;13.10;;;12.00;;
36433;SDS011;31691;51.972;5.672;2022-07-05T22:24:29;14.40;;;13.20;;
36433;SDS011;31691;51.972;5.672;2022-07-05T22:29:31;14.30;;;13.20;;
36433;SDS011;31691;51.972;5.672;2022-07-05T22:34:33;13.60;;;12.40;;
36433;SDS011;31691;51.972;5.672;2022-07-05T22:44:38;15.23;;;13.38;;
36433;SDS011;31691;51.972;5.672;2022-07-05T22:49:40;13.75;;;12.60;;
36433;SDS011;31691;51.972;5.672;2022-07-05T22:54:42;14.18;;;13.07;;
36433;SDS011;31691;51.972;5.672;2022-07-05T22:59:44;13.45;;;12.15;;
36433;SDS011;31691;51.972;5.672;2022-07-05T23:04:47;14.20;;;13.00;;
36433;SDS011;31691;51.972;5.672;2022-07-05T23:09:49;13.55;;;12.35;;
36433;SDS011;31691;51.972;5.672;2022-07-05T23:14:51;13.18;;;12.15;;
36433;SDS011;31691;51.972;5.672;2022-07-05T23:19:54;13.43;;;12.20;;
36433;SDS011;31691;51.972;5.672;2022-07-05T23:24:56;13.52;;;12.35;;
36433;SDS011;31691;51.972;5.672;2022-07-05T23:29:59;13.48;;;12.48;;
36433;SDS011;31691;51.972;5.672;2022-07-05T23:35:02;13.60;;;12.50;;
36433;SDS011;31691;51.972;5.672;2022-07-05T23:40:05;14.63;;;13.40;;
36433;SDS011;31691;51.972;5.672;2022-07-05T23:45:08;15.05;;;13.50;;
36433;SDS011;31691;51.972;5.672;2022-07-05T23:50:11;15.00;;;13.57;;
